sensor_id;sensor_type;location;lat;lon;timestamp;temperature;humidity
8910;DHT22;4490;49.072;8.804;2022-08-21T00:00:50;17.60;74.50
8910;DHT22;4490;49.072;8.804;2022-08-21T00:03:17;17.50;74.50
8910;DHT22;4490;49.072;8.804;2022-08-21T00:05:49;17.50;74.60
8910;DHT22;4490;49.072;8.804;2022-08-21T00:08:16;17.40;74.60
8910;DHT22;4490;49.072;8.804;2022-08-21T00:10:43;17.40;74.70
8910;DHT22;4490;49.072;8.804;2022-08-21T00:13:10;17.40;74.80
8910;DHT22;4490;49.072;8.804;2022-08-21T00:15:38;17.40;74.90
8910;DHT22;4490;49.072;8.804;2022-08-21T00:18:07;17.30;75.00
8910;DHT22;4490;49.072;8.804;2022-08-21T00:20:34;17.30;75.20
8910;DHT22;4490;49.072;8.804;2022-08-21T00:23:00;17.30;76.20
8910;DHT22;4490;49.072;8.804;2022-08-21T00:25:27;17.20;75.50
8910;DHT22;4490;49.072;8.804;2022-08-21T00:27:53;17.20;75.70
8910;DHT22;4490;49.072;8.804;2022-08-21T00:30:20;17.20;75.80
8910;DHT22;4490;49.072;8.804;2022-08-21T00:32:46;17.10;76.00
8910;DHT22;4490;49.072;8.804;2022-08-21T00:35:14;17.10;76.30
8910;DHT22;4490;49.072;8.804;2022-08-21T00:37:41;17.10;76.70
8910;DHT22;4490;49.072;8.804;2022-08-21T00:40:10;17.00;76.80
8910;DHT22;4490;49.072;8.804;2022-08-21T00:42:36;17.00;77.10
8910;DHT22;4490;49.072;8.804;2022-08-21T00:45:03;17.00;77.00
8910;DHT22;4490;49.072;8.804;2022-08-21T00:47:30;17.00;77.20
8910;DHT22;4490;49.072;8.804;2022-08-21T00:49:55;16.90;77.00
8910;DHT22;4490;49.072;8.804;2022-08-21T00:52:24;16.90;76.90
8910;DHT22;4490;49.072;8.804;2022-08-21T00:54:52;16.90;77.20
8910;DHT22;4490;49.072;8.804;2022-08-21T00:57:32;16.90;77.30
8910;DHT22;4490;49.072;8.804;2022-08-21T01:00:00;16.90;77.40
8910;DHT22;4490;49.072;8.804;2022-08-21T01:02:26;16.90;77.30
8910;DHT22;4490;49.072;8.804;2022-08-21T01:04:52;16.90;77.50
8910;DHT22;4490;49.072;8.804;2022-08-21T01:07:18;16.90;77.60
8910;DHT22;4490;49.072;8.804;2022-08-21T01:09:46;16.90;77.40
8910;DHT22;4490;49.072;8.804;2022-08-21T01:12:13;16.80;77.30
8910;DHT22;4490;49.072;8.804;2022-08-21T01:14:40;16.80;78.20
8910;DHT22;4490;49.072;8.804;2022-08-21T01:17:08;16.80;77.60
8910;DHT22;4490;49.072;8.804;2022-08-21T01:19:35;16.70;77.60
8910;DHT22;4490;49.072;8.804;2022-08-21T01:22:01;16.70;77.70
8910;DHT22;4490;49.072;8.804;2022-08-21T01:24:27;16.70;77.80
8910;DHT22;4490;49.072;8.804;2022-08-21T01:26:53;16.60;77.80
8910;DHT22;4490;49.072;8.804;2022-08-21T01:32:04;16.60;78.40
8910;DHT22;4490;49.072;8.804;2022-08-21T01:34:32;16.50;78.60
8910;DHT22;4490;49.072;8.804;2022-08-21T01:36:58;16.50;78.70
8910;DHT22;4490;49.072;8.804;2022-08-21T01:39:23;16.40;78.80
8910;DHT22;4490;49.072;8.804;2022-08-21T01:41:49;16.40;78.90
8910;DHT22;4490;49.072;8.804;2022-08-21T01:44:15;16.40;78.90
8910;DHT22;4490;49.072;8.804;2022-08-21T01:46:41;16.30;79.00
8910;DHT22;4490;49.072;8.804;2022-08-21T01:49:06;16.30;79.30
8910;DHT22;4490;49.072;8.804;2022-08-21T01:51:32;16.30;79.50
8910;DHT22;4490;49.072;8.804;2022-08-21T01:53:58;16.20;79.50
8910;DHT22;4490;49.072;8.804;2022-08-21T01:56:24;16.20;79.80
8910;DHT22;4490;49.072;8.804;2022-08-21T01:58:51;16.20;79.90
8910;DHT22;4490;49.072;8.804;2022-08-21T02:01:16;16.10;79.90
8910;DHT22;4490;49.072;8.804;2022-08-21T02:03:42;16.10;80.10
8910;DHT22;4490;49.072;8.804;2022-08-21T02:06:13;16.10;80.30
8910;DHT22;4490;49.072;8.804;2022-08-21T02:08:40;16.00;80.50
8910;DHT22;4490;49.072;8.804;2022-08-21T02:11:06;16.00;80.60
8910;DHT22;4490;49.072;8.804;2022-08-21T02:13:31;15.90;80.70
8910;DHT22;4490;49.072;8.804;2022-08-21T02:15:57;15.90;81.00
8910;DHT22;4490;49.072;8.804;2022-08-21T02:18:23;15.90;81.20
8910;DHT22;4490;49.072;8.804;2022-08-21T02:20:49;15.80;81.30
8910;DHT22;4490;49.072;8.804;2022-08-21T02:23:15;15.80;81.30
8910;DHT22;4490;49.072;8.804;2022-08-21T02:25:41;15.80;81.60
8910;DHT22;4490;49.072;8.804;2022-08-21T02:28:10;15.70;81.60
8910;DHT22;4490;49.072;8.804;2022-08-21T02:30:40;15.70;81.80
8910;DHT22;4490;49.072;8.804;2022-08-21T02:33:08;15.60;81.90
8910;DHT22;4490;49.072;8.804;2022-08-21T02:35:35;15.60;82.10
8910;DHT22;4490;49.072;8.804;2022-08-21T02:38:05;15.50;82.30
8910;DHT22;4490;49.072;8.804;2022-08-21T02:40:34;15.50;82.40
8910;DHT22;4490;49.072;8.804;2022-08-21T02:43:01;15.50;82.70
8910;DHT22;4490;49.072;8.804;2022-08-21T02:45:28;15.40;82.80
8910;DHT22;4490;49.072;8.804;2022-08-21T02:47:57;15.40;83.00
8910;DHT22;4490;49.072;8.804;2022-08-21T02:50:30;15.30;83.20
8910;DHT22;4490;49.072;8.804;2022-08-21T02:52:56;15.30;83.40
8910;DHT22;4490;49.072;8.804;2022-08-21T02:55:24;15.30;84.40
8910;DHT22;4490;49.072;8.804;2022-08-21T02:57:52;15.30;83.90
8910;DHT22;4490;49.072;8.804;2022-08-21T03:00:19;15.20;84.00
8910;DHT22;4490;49.072;8.804;2022-08-21T03:02:46;15.20;84.20
8910;DHT22;4490;49.072;8.804;2022-08-21T03:05:13;15.20;84.40
8910;DHT22;4490;49.072;8.804;2022-08-21T03:07:41;15.20;84.70
8910;DHT22;4490;49.072;8.804;2022-08-21T03:10:08;15.10;85.00
8910;DHT22;4490;49.072;8.804;2022-08-21T03:12:34;15.10;85.20
8910;DHT22;4490;49.072;8.804;2022-08-21T03:15:05;15.10;85.30
8910;DHT22;4490;49.072;8.804;2022-08-21T03:17:32;15.10;85.50
8910;DHT22;4490;49.072;8.804;2022-08-21T03:19:58;15.10;85.70
8910;DHT22;4490;49.072;8.804;2022-08-21T03:22:24;15.10;86.00
8910;DHT22;4490;49.072;8.804;2022-08-21T03:24:50;15.10;86.20
8910;DHT22;4490;49.072;8.804;2022-08-21T03:27:16;15.00;86.40
8910;DHT22;4490;49.072;8.804;2022-08-21T03:29:42;15.00;86.60
8910;DHT22;4490;49.072;8.804;2022-08-21T03:32:07;15.00;86.90
8910;DHT22;4490;49.072;8.804;2022-08-21T03:34:37;14.90;86.90
8910;DHT22;4490;49.072;8.804;2022-08-21T03:37:03;14.90;87.10
8910;DHT22;4490;49.072;8.804;2022-08-21T03:39:29;14.90;87.30
8910;DHT22;4490;49.072;8.804;2022-08-21T03:41:55;14.90;88.20
8910;DHT22;4490;49.072;8.804;2022-08-21T03:44:20;14.90;87.70
8910;DHT22;4490;49.072;8.804;2022-08-21T03:46:46;14.90;88.00
8910;DHT22;4490;49.072;8.804;2022-08-21T03:49:12;14.90;88.20
8910;DHT22;4490;49.072;8.804;2022-08-21T03:51:38;14.90;88.40
8910;DHT22;4490;49.072;8.804;2022-08-21T03:54:04;14.90;88.60
8910;DHT22;4490;49.072;8.804;2022-08-21T03:56:30;14.90;88.80
8910;DHT22;4490;49.072;8.804;2022-08-21T03:58:55;14.90;89.00
8910;DHT22;4490;49.072;8.804;2022-08-21T04:01:21;14.90;89.00
8910;DHT22;4490;49.072;8.804;2022-08-21T04:03:47;14.90;89.00
8910;DHT22;4490;49.072;8.804;2022-08-21T04:06:13;14.80;89.60
8910;DHT22;4490;49.072;8.804;2022-08-21T04:08:38;14.80;89.10
8910;DHT22;4490;49.072;8.804;2022-08-21T04:11:05;14.80;89.20
8910;DHT22;4490;49.072;8.804;2022-08-21T04:13:32;14.80;89.40
8910;DHT22;4490;49.072;8.804;2022-08-21T04:15:57;14.80;89.60
8910;DHT22;4490;49.072;8.804;2022-08-21T04:18:25;14.80;89.90
8910;DHT22;4490;49.072;8.804;2022-08-21T04:20:52;14.80;90.00
8910;DHT22;4490;49.072;8.804;2022-08-21T04:23:19;14.80;90.00
8910;DHT22;4490;49.072;8.804;2022-08-21T04:25:45;14.80;90.00
8910;DHT22;4490;49.072;8.804;2022-08-21T04:28:11;14.80;90.40
8910;DHT22;4490;49.072;8.804;2022-08-21T04:30:37;14.70;90.40
8910;DHT22;4490;49.072;8.804;2022-08-21T04:33:02;14.70;90.20
8910;DHT22;4490;49.072;8.804;2022-08-21T04:35:29;14.70;90.30
8910;DHT22;4490;49.072;8.804;2022-08-21T04:37:55;14.60;90.50
8910;DHT22;4490;49.072;8.804;2022-08-21T04:40:23;14.60;91.00
8910;DHT22;4490;49.072;8.804;2022-08-21T04:42:53;14.60;90.70
8910;DHT22;4490;49.072;8.804;2022-08-21T04:45:26;14.60;90.90
8910;DHT22;4490;49.072;8.804;2022-08-21T04:47:53;14.50;91.20
8910;DHT22;4490;49.072;8.804;2022-08-21T04:53:13;14.50;91.60
8910;DHT22;4490;49.072;8.804;2022-08-21T04:55:40;14.60;91.70
8910;DHT22;4490;49.072;8.804;2022-08-21T04:58:07;14.60;91.80
8910;DHT22;4490;49.072;8.804;2022-08-21T05:00:34;14.50;91.90
8910;DHT22;4490;49.072;8.804;2022-08-21T05:03:01;14.60;92.20
8910;DHT22;4490;49.072;8.804;2022-08-21T05:05:28;14.60;92.40
8910;DHT22;4490;49.072;8.804;2022-08-21T05:07:56;14.60;92.50
8910;DHT22;4490;49.072;8.804;2022-08-21T05:10:22;14.60;92.60
8910;DHT22;4490;49.072;8.804;2022-08-21T05:12:48;14.60;92.90
8910;DHT22;4490;49.072;8.804;2022-08-21T05:15:14;14.60;93.20
8910;DHT22;4490;49.072;8.804;2022-08-21T05:17:42;14.60;93.50
8910;DHT22;4490;49.072;8.804;2022-08-21T05:20:09;14.60;93.80
8910;DHT22;4490;49.072;8.804;2022-08-21T05:22:35;14.60;94.00
8910;DHT22;4490;49.072;8.804;2022-08-21T05:25:01;14.60;94.20
8910;DHT22;4490;49.072;8.804;2022-08-21T05:27:27;14.60;94.40
8910;DHT22;4490;49.072;8.804;2022-08-21T05:29:55;14.60;94.70
8910;DHT22;4490;49.072;8.804;2022-08-21T05:32:21;14.70;94.90
8910;DHT22;4490;49.072;8.804;2022-08-21T05:34:46;14.70;95.10
8910;DHT22;4490;49.072;8.804;2022-08-21T05:37:12;14.70;95.20
8910;DHT22;4490;49.072;8.804;2022-08-21T05:39:38;14.70;95.20
8910;DHT22;4490;49.072;8.804;2022-08-21T05:42:04;14.80;95.60
8910;DHT22;4490;49.072;8.804;2022-08-21T05:44:30;14.80;95.40
8910;DHT22;4490;49.072;8.804;2022-08-21T05:47:08;14.90;95.90
8910;DHT22;4490;49.072;8.804;2022-08-21T05:49:35;14.90;95.70
8910;DHT22;4490;49.072;8.804;2022-08-21T05:52:01;15.00;96.00
8910;DHT22;4490;49.072;8.804;2022-08-21T05:54:27;15.00;96.30
8910;DHT22;4490;49.072;8.804;2022-08-21T05:56:54;15.00;96.50
8910;DHT22;4490;49.072;8.804;2022-08-21T05:59:19;15.10;96.80
8910;DHT22;4490;49.072;8.804;2022-08-21T06:01:45;15.10;96.80
8910;DHT22;4490;49.072;8.804;2022-08-21T06:04:12;15.20;96.90
8910;DHT22;4490;49.072;8.804;2022-08-21T06:06:38;15.20;97.10
8910;DHT22;4490;49.072;8.804;2022-08-21T06:09:04;15.30;97.40
8910;DHT22;4490;49.072;8.804;2022-08-21T06:11:31;15.40;97.50
8910;DHT22;4490;49.072;8.804;2022-08-21T06:13:57;15.40;97.70
8910;DHT22;4490;49.072;8.804;2022-08-21T06:16:23;15.50;97.90
8910;DHT22;4490;49.072;8.804;2022-08-21T06:18:49;15.60;98.00
8910;DHT22;4490;49.072;8.804;2022-08-21T06:21:14;15.70;97.90
8910;DHT22;4490;49.072;8.804;2022-08-21T06:23:41;15.90;98.00
8910;DHT22;4490;49.072;8.804;2022-08-21T06:26:07;16.10;98.50
8910;DHT22;4490;49.072;8.804;2022-08-21T06:28:34;16.50;97.60
8910;DHT22;4490;49.072;8.804;2022-08-21T06:31:00;17.10;95.70
8910;DHT22;4490;49.072;8.804;2022-08-21T06:33:26;17.70;94.20
8910;DHT22;4490;49.072;8.804;2022-08-21T06:35:52;18.40;92.50
8910;DHT22;4490;49.072;8.804;2022-08-21T06:38:17;19.00;90.90
8910;DHT22;4490;49.072;8.804;2022-08-21T06:40:43;19.60;88.20
8910;DHT22;4490;49.072;8.804;2022-08-21T06:43:12;20.10;85.30
8910;DHT22;4490;49.072;8.804;2022-08-21T06:45:38;20.50;82.80
8910;DHT22;4490;49.072;8.804;2022-08-21T06:48:04;20.80;80.80
8910;DHT22;4490;49.072;8.804;2022-08-21T06:50:32;21.10;79.50
8910;DHT22;4490;49.072;8.804;2022-08-21T06:53:03;21.40;78.50
8910;DHT22;4490;49.072;8.804;2022-08-21T06:55:29;21.60;77.70
8910;DHT22;4490;49.072;8.804;2022-08-21T06:57:54;21.70;76.70
8910;DHT22;4490;49.072;8.804;2022-08-21T07:00:20;21.80;76.70
8910;DHT22;4490;49.072;8.804;2022-08-21T07:02:46;21.70;77.50
8910;DHT22;4490;49.072;8.804;2022-08-21T07:05:12;21.60;77.70
8910;DHT22;4490;49.072;8.804;2022-08-21T07:07:38;21.50;77.60
8910;DHT22;4490;49.072;8.804;2022-08-21T07:10:03;21.50;78.10
8910;DHT22;4490;49.072;8.804;2022-08-21T07:12:29;21.50;77.70
8910;DHT22;4490;49.072;8.804;2022-08-21T07:14:55;21.50;77.30
8910;DHT22;4490;49.072;8.804;2022-08-21T07:17:21;21.50;76.80
8910;DHT22;4490;49.072;8.804;2022-08-21T07:19:46;21.40;76.50
8910;DHT22;4490;49.072;8.804;2022-08-21T07:22:13;21.40;76.10
8910;DHT22;4490;49.072;8.804;2022-08-21T07:24:40;21.40;76.40
8910;DHT22;4490;49.072;8.804;2022-08-21T07:27:06;21.40;76.10
8910;DHT22;4490;49.072;8.804;2022-08-21T07:29:31;21.40;76.20
8910;DHT22;4490;49.072;8.804;2022-08-21T07:31:57;21.50;76.00
8910;DHT22;4490;49.072;8.804;2022-08-21T07:34:23;21.50;76.00
8910;DHT22;4490;49.072;8.804;2022-08-21T07:36:48;21.60;76.10
8910;DHT22;4490;49.072;8.804;2022-08-21T07:39:14;21.60;74.50
8910;DHT22;4490;49.072;8.804;2022-08-21T07:41:39;21.60;74.30
8910;DHT22;4490;49.072;8.804;2022-08-21T07:44:05;21.70;74.30
8910;DHT22;4490;49.072;8.804;2022-08-21T07:46:30;21.80;73.70
8910;DHT22;4490;49.072;8.804;2022-08-21T07:48:56;21.90;73.60
8910;DHT22;4490;49.072;8.804;2022-08-21T07:51:25;22.10;73.20
8910;DHT22;4490;49.072;8.804;2022-08-21T07:53:54;22.30;72.80
8910;DHT22;4490;49.072;8.804;2022-08-21T07:56:21;22.50;73.40
8910;DHT22;4490;49.072;8.804;2022-08-21T07:58:47;22.70;73.00
8910;DHT22;4490;49.072;8.804;2022-08-21T08:01:13;22.90;72.70
8910;DHT22;4490;49.072;8.804;2022-08-21T08:03:39;23.20;72.60
8910;DHT22;4490;49.072;8.804;2022-08-21T08:06:06;23.40;70.70
8910;DHT22;4490;49.072;8.804;2022-08-21T08:08:33;23.60;69.70
8910;DHT22;4490;49.072;8.804;2022-08-21T08:10:59;23.80;68.70
8910;DHT22;4490;49.072;8.804;2022-08-21T08:13:27;24.00;67.20
8910;DHT22;4490;49.072;8.804;2022-08-21T08:15:53;24.10;66.30
8910;DHT22;4490;49.072;8.804;2022-08-21T08:18:19;24.20;67.00
8910;DHT22;4490;49.072;8.804;2022-08-21T08:20:45;24.40;65.70
8910;DHT22;4490;49.072;8.804;2022-08-21T08:23:12;24.50;65.90
8910;DHT22;4490;49.072;8.804;2022-08-21T08:25:38;24.70;66.30
8910;DHT22;4490;49.072;8.804;2022-08-21T08:28:05;24.80;64.80
8910;DHT22;4490;49.072;8.804;2022-08-21T08:30:32;24.90;64.30
8910;DHT22;4490;49.072;8.804;2022-08-21T08:32:57;24.90;64.90
8910;DHT22;4490;49.072;8.804;2022-08-21T08:35:25;25.00;63.90
8910;DHT22;4490;49.072;8.804;2022-08-21T08:37:51;25.10;62.80
8910;DHT22;4490;49.072;8.804;2022-08-21T08:40:39;25.20;62.20
8910;DHT22;4490;49.072;8.804;2022-08-21T08:43:07;25.20;60.90
8910;DHT22;4490;49.072;8.804;2022-08-21T08:45:36;25.10;61.50
8910;DHT22;4490;49.072;8.804;2022-08-21T08:48:05;25.20;61.80
8910;DHT22;4490;49.072;8.804;2022-08-21T08:50:55;25.20;63.70
8910;DHT22;4490;49.072;8.804;2022-08-21T08:53:33;25.50;62.70
8910;DHT22;4490;49.072;8.804;2022-08-21T08:56:02;25.70;62.50
8910;DHT22;4490;49.072;8.804;2022-08-21T08:58:33;25.90;61.80
8910;DHT22;4490;49.072;8.804;2022-08-21T09:01:00;26.00;60.60
8910;DHT22;4490;49.072;8.804;2022-08-21T09:03:28;26.10;61.80
8910;DHT22;4490;49.072;8.804;2022-08-21T09:09:11;26.50;60.20
8910;DHT22;4490;49.072;8.804;2022-08-21T09:17:10;26.90;59.80
8910;DHT22;4490;49.072;8.804;2022-08-21T09:20:19;27.20;59.10
8910;DHT22;4490;49.072;8.804;2022-08-21T09:25:30;27.70;55.80
8910;DHT22;4490;49.072;8.804;2022-08-21T09:27:57;27.80;56.90
8910;DHT22;4490;49.072;8.804;2022-08-21T09:30:28;27.90;57.10
8910;DHT22;4490;49.072;8.804;2022-08-21T09:32:54;28.00;56.80
8910;DHT22;4490;49.072;8.804;2022-08-21T09:35:21;28.10;56.50
8910;DHT22;4490;49.072;8.804;2022-08-21T09:37:51;28.20;55.40
8910;DHT22;4490;49.072;8.804;2022-08-21T09:45:40;28.40;54.10
8910;DHT22;4490;49.072;8.804;2022-08-21T09:48:20;28.50;55.10
8910;DHT22;4490;49.072;8.804;2022-08-21T09:50:48;28.70;52.70
8910;DHT22;4490;49.072;8.804;2022-08-21T09:53:32;28.70;51.30
8910;DHT22;4490;49.072;8.804;2022-08-21T09:56:19;28.80;49.30
8910;DHT22;4490;49.072;8.804;2022-08-21T09:59:24;28.80;51.30
8910;DHT22;4490;49.072;8.804;2022-08-21T10:01:50;29.00;53.80
8910;DHT22;4490;49.072;8.804;2022-08-21T10:04:22;29.30;52.90
8910;DHT22;4490;49.072;8.804;2022-08-21T10:06:47;29.50;52.10
8910;DHT22;4490;49.072;8.804;2022-08-21T10:09:18;29.70;51.30
8910;DHT22;4490;49.072;8.804;2022-08-21T10:11:58;29.90;51.10
8910;DHT22;4490;49.072;8.804;2022-08-21T10:18:07;30.40;49.00
8910;DHT22;4490;49.072;8.804;2022-08-21T10:20:51;30.70;48.50
8910;DHT22;4490;49.072;8.804;2022-08-21T10:26:09;30.90;47.90
8910;DHT22;4490;49.072;8.804;2022-08-21T10:37:15;31.30;47.20
8910;DHT22;4490;49.072;8.804;2022-08-21T10:48:25;31.40;44.30
8910;DHT22;4490;49.072;8.804;2022-08-21T10:51:20;31.30;47.00
8910;DHT22;4490;49.072;8.804;2022-08-21T10:54:09;31.40;45.90
8910;DHT22;4490;49.072;8.804;2022-08-21T10:56:41;31.50;45.60
8910;DHT22;4490;49.072;8.804;2022-08-21T10:59:44;31.60;45.40
8910;DHT22;4490;49.072;8.804;2022-08-21T11:02:23;31.80;43.80
8910;DHT22;4490;49.072;8.804;2022-08-21T11:05:01;31.80;44.50
8910;DHT22;4490;49.072;8.804;2022-08-21T11:07:44;31.90;44.40
8910;DHT22;4490;49.072;8.804;2022-08-21T11:10:40;32.00;44.50
8910;DHT22;4490;49.072;8.804;2022-08-21T11:19:00;32.20;40.80
8910;DHT22;4490;49.072;8.804;2022-08-21T11:21:38;32.30;43.60
8910;DHT22;4490;49.072;8.804;2022-08-21T11:29:47;32.40;42.60
8910;DHT22;4490;49.072;8.804;2022-08-21T11:38:09;32.70;42.40
8910;DHT22;4490;49.072;8.804;2022-08-21T11:45:56;32.80;41.80
8910;DHT22;4490;49.072;8.804;2022-08-21T11:48:40;32.90;40.80
8910;DHT22;4490;49.072;8.804;2022-08-21T11:51:13;32.90;41.40
8910;DHT22;4490;49.072;8.804;2022-08-21T11:53:51;33.10;41.10
8910;DHT22;4490;49.072;8.804;2022-08-21T11:56:27;33.10;43.00
8910;DHT22;4490;49.072;8.804;2022-08-21T11:58:58;33.20;41.80
8910;DHT22;4490;49.072;8.804;2022-08-21T12:01:32;33.40;43.00
8910;DHT22;4490;49.072;8.804;2022-08-21T12:04:06;33.50;41.00
8910;DHT22;4490;49.072;8.804;2022-08-21T12:06:34;33.70;40.00
8910;DHT22;4490;49.072;8.804;2022-08-21T12:09:10;33.80;40.20
8910;DHT22;4490;49.072;8.804;2022-08-21T12:11:50;33.90;40.00
8910;DHT22;4490;49.072;8.804;2022-08-21T12:14:40;34.10;39.20
8910;DHT22;4490;49.072;8.804;2022-08-21T12:17:08;34.30;38.00
8910;DHT22;4490;49.072;8.804;2022-08-21T12:19:35;34.40;39.30
8910;DHT22;4490;49.072;8.804;2022-08-21T12:24:49;34.70;38.80
8910;DHT22;4490;49.072;8.804;2022-08-21T12:27:27;34.70;36.20
8910;DHT22;4490;49.072;8.804;2022-08-21T12:30:03;34.70;37.40
8910;DHT22;4490;49.072;8.804;2022-08-21T12:32:42;34.80;37.20
8910;DHT22;4490;49.072;8.804;2022-08-21T12:35:21;34.80;36.80
8910;DHT22;4490;49.072;8.804;2022-08-21T12:38:04;34.80;36.10
8910;DHT22;4490;49.072;8.804;2022-08-21T12:40:38;34.80;36.50
8910;DHT22;4490;49.072;8.804;2022-08-21T12:43:05;34.90;36.40
8910;DHT22;4490;49.072;8.804;2022-08-21T12:45:42;34.90;35.90
8910;DHT22;4490;49.072;8.804;2022-08-21T12:48:18;34.90;36.00
8910;DHT22;4490;49.072;8.804;2022-08-21T12:50:50;35.00;37.20
8910;DHT22;4490;49.072;8.804;2022-08-21T12:53:30;35.10;37.00
8910;DHT22;4490;49.072;8.804;2022-08-21T12:55:57;35.20;34.60
8910;DHT22;4490;49.072;8.804;2022-08-21T12:58:29;35.40;35.00
8910;DHT22;4490;49.072;8.804;2022-08-21T13:01:05;35.50;34.70
8910;DHT22;4490;49.072;8.804;2022-08-21T13:03:35;35.50;33.50
8910;DHT22;4490;49.072;8.804;2022-08-21T13:06:04;35.50;35.40
8910;DHT22;4490;49.072;8.804;2022-08-21T13:08:31;35.40;35.70
8910;DHT22;4490;49.072;8.804;2022-08-21T13:11:05;35.50;35.20
8910;DHT22;4490;49.072;8.804;2022-08-21T13:13:33;35.50;33.60
8910;DHT22;4490;49.072;8.804;2022-08-21T13:16:03;35.50;34.80
8910;DHT22;4490;49.072;8.804;2022-08-21T13:18:33;35.60;35.10
8910;DHT22;4490;49.072;8.804;2022-08-21T13:21:10;35.60;34.90
8910;DHT22;4490;49.072;8.804;2022-08-21T13:23:36;35.50;35.60
8910;DHT22;4490;49.072;8.804;2022-08-21T13:26:15;35.50;34.30
8910;DHT22;4490;49.072;8.804;2022-08-21T13:28:41;35.60;33.20
8910;DHT22;4490;49.072;8.804;2022-08-21T13:31:09;35.50;33.40
8910;DHT22;4490;49.072;8.804;2022-08-21T13:33:37;35.60;32.70
8910;DHT22;4490;49.072;8.804;2022-08-21T13:38:35;35.90;32.10
8910;DHT22;4490;49.072;8.804;2022-08-21T13:41:04;36.00;31.60
8910;DHT22;4490;49.072;8.804;2022-08-21T13:43:34;36.10;32.10
8910;DHT22;4490;49.072;8.804;2022-08-21T13:46:01;36.20;31.90
8910;DHT22;4490;49.072;8.804;2022-08-21T13:48:30;36.10;32.00
8910;DHT22;4490;49.072;8.804;2022-08-21T13:50:57;36.20;32.50
8910;DHT22;4490;49.072;8.804;2022-08-21T13:53:30;36.10;33.00
8910;DHT22;4490;49.072;8.804;2022-08-21T13:55:58;36.20;32.70
8910;DHT22;4490;49.072;8.804;2022-08-21T13:58:30;36.10;32.80
8910;DHT22;4490;49.072;8.804;2022-08-21T14:00:59;36.00;32.00
8910;DHT22;4490;49.072;8.804;2022-08-21T14:03:42;35.80;32.60
8910;DHT22;4490;49.072;8.804;2022-08-21T14:06:25;35.70;32.20
8910;DHT22;4490;49.072;8.804;2022-08-21T14:08:58;35.50;33.00
8910;DHT22;4490;49.072;8.804;2022-08-21T14:11:26;35.30;31.70
8910;DHT22;4490;49.072;8.804;2022-08-21T14:16:28;34.80;32.60
8910;DHT22;4490;49.072;8.804;2022-08-21T14:19:21;34.50;33.30
8910;DHT22;4490;49.072;8.804;2022-08-21T14:21:47;34.40;32.50
8910;DHT22;4490;49.072;8.804;2022-08-21T14:24:26;34.30;33.20
8910;DHT22;4490;49.072;8.804;2022-08-21T14:26:56;34.30;32.20
8910;DHT22;4490;49.072;8.804;2022-08-21T14:29:26;34.20;32.30
8910;DHT22;4490;49.072;8.804;2022-08-21T14:31:58;34.10;32.70
8910;DHT22;4490;49.072;8.804;2022-08-21T14:34:28;34.00;32.90
8910;DHT22;4490;49.072;8.804;2022-08-21T14:36:55;34.00;32.40
8910;DHT22;4490;49.072;8.804;2022-08-21T14:39:21;33.90;33.20
8910;DHT22;4490;49.072;8.804;2022-08-21T14:41:47;33.80;32.50
8910;DHT22;4490;49.072;8.804;2022-08-21T14:44:16;33.70;32.90
8910;DHT22;4490;49.072;8.804;2022-08-21T14:46:42;33.70;32.90
8910;DHT22;4490;49.072;8.804;2022-08-21T14:49:08;33.60;32.70
8910;DHT22;4490;49.072;8.804;2022-08-21T14:51:33;33.60;33.00
8910;DHT22;4490;49.072;8.804;2022-08-21T14:53:59;33.50;33.80
8910;DHT22;4490;49.072;8.804;2022-08-21T14:56:25;33.50;33.60
8910;DHT22;4490;49.072;8.804;2022-08-21T14:58:52;33.40;33.30
8910;DHT22;4490;49.072;8.804;2022-08-21T15:01:20;33.40;33.80
8910;DHT22;4490;49.072;8.804;2022-08-21T15:03:47;33.30;33.20
8910;DHT22;4490;49.072;8.804;2022-08-21T15:06:15;33.10;33.70
8910;DHT22;4490;49.072;8.804;2022-08-21T15:08:42;33.00;34.40
8910;DHT22;4490;49.072;8.804;2022-08-21T15:11:12;32.90;33.80
8910;DHT22;4490;49.072;8.804;2022-08-21T15:13:41;32.80;33.70
8910;DHT22;4490;49.072;8.804;2022-08-21T15:16:08;32.60;35.30
8910;DHT22;4490;49.072;8.804;2022-08-21T15:18:35;32.50;35.30
8910;DHT22;4490;49.072;8.804;2022-08-21T15:21:01;32.30;35.10
8910;DHT22;4490;49.072;8.804;2022-08-21T15:23:27;32.20;35.90
8910;DHT22;4490;49.072;8.804;2022-08-21T15:25:53;32.00;35.50
8910;DHT22;4490;49.072;8.804;2022-08-21T15:28:19;32.00;35.70
8910;DHT22;4490;49.072;8.804;2022-08-21T15:30:50;31.90;35.00
8910;DHT22;4490;49.072;8.804;2022-08-21T15:33:17;31.90;35.70
8910;DHT22;4490;49.072;8.804;2022-08-21T15:35:44;31.80;35.40
8910;DHT22;4490;49.072;8.804;2022-08-21T15:38:13;31.70;36.10
8910;DHT22;4490;49.072;8.804;2022-08-21T15:40:41;31.70;36.70
8910;DHT22;4490;49.072;8.804;2022-08-21T15:43:12;31.50;37.00
8910;DHT22;4490;49.072;8.804;2022-08-21T15:45:41;31.40;36.20
8910;DHT22;4490;49.072;8.804;2022-08-21T15:48:07;31.20;36.80
8910;DHT22;4490;49.072;8.804;2022-08-21T15:50:32;31.10;37.10
8910;DHT22;4490;49.072;8.804;2022-08-21T15:52:58;31.00;36.70
8910;DHT22;4490;49.072;8.804;2022-08-21T15:55:24;31.00;37.50
8910;DHT22;4490;49.072;8.804;2022-08-21T15:57:51;30.90;36.20
8910;DHT22;4490;49.072;8.804;2022-08-21T16:00:22;30.80;36.20
8910;DHT22;4490;49.072;8.804;2022-08-21T16:02:51;30.70;36.70
8910;DHT22;4490;49.072;8.804;2022-08-21T16:05:18;30.60;36.40
8910;DHT22;4490;49.072;8.804;2022-08-21T16:07:45;30.60;36.10
8910;DHT22;4490;49.072;8.804;2022-08-21T16:10:15;30.60;36.00
8910;DHT22;4490;49.072;8.804;2022-08-21T16:12:49;30.60;35.80
8910;DHT22;4490;49.072;8.804;2022-08-21T16:15:16;30.60;35.30
8910;DHT22;4490;49.072;8.804;2022-08-21T16:17:44;30.50;36.20
8910;DHT22;4490;49.072;8.804;2022-08-21T16:20:16;30.40;36.10
8910;DHT22;4490;49.072;8.804;2022-08-21T16:22:42;30.30;36.20
8910;DHT22;4490;49.072;8.804;2022-08-21T16:25:08;30.30;37.40
8910;DHT22;4490;49.072;8.804;2022-08-21T16:27:34;30.10;36.90
8910;DHT22;4490;49.072;8.804;2022-08-21T16:30:02;30.00;36.50
8910;DHT22;4490;49.072;8.804;2022-08-21T16:32:28;29.90;37.80
8910;DHT22;4490;49.072;8.804;2022-08-21T16:34:54;29.90;37.20
8910;DHT22;4490;49.072;8.804;2022-08-21T16:37:20;29.80;36.90
8910;DHT22;4490;49.072;8.804;2022-08-21T16:39:46;29.70;36.90
8910;DHT22;4490;49.072;8.804;2022-08-21T16:42:15;29.60;37.20
8910;DHT22;4490;49.072;8.804;2022-08-21T16:44:42;29.60;37.00
8910;DHT22;4490;49.072;8.804;2022-08-21T16:47:08;29.60;37.00
8910;DHT22;4490;49.072;8.804;2022-08-21T16:49:34;29.50;37.30
8910;DHT22;4490;49.072;8.804;2022-08-21T16:52:00;29.50;37.20
8910;DHT22;4490;49.072;8.804;2022-08-21T16:54:26;29.40;38.10
8910;DHT22;4490;49.072;8.804;2022-08-21T16:56:53;29.40;38.70
8910;DHT22;4490;49.072;8.804;2022-08-21T16:59:19;29.30;39.10
8910;DHT22;4490;49.072;8.804;2022-08-21T17:01:45;29.20;38.50
8910;DHT22;4490;49.072;8.804;2022-08-21T17:04:10;29.10;39.60
8910;DHT22;4490;49.072;8.804;2022-08-21T17:06:36;29.10;40.00
8910;DHT22;4490;49.072;8.804;2022-08-21T17:09:02;29.00;39.90
8910;DHT22;4490;49.072;8.804;2022-08-21T17:11:37;28.90;39.90
8910;DHT22;4490;49.072;8.804;2022-08-21T17:14:17;28.80;40.30
8910;DHT22;4490;49.072;8.804;2022-08-21T17:16:46;28.70;41.20
8910;DHT22;4490;49.072;8.804;2022-08-21T17:19:13;28.60;41.70
8910;DHT22;4490;49.072;8.804;2022-08-21T17:21:39;28.50;42.50
8910;DHT22;4490;49.072;8.804;2022-08-21T17:24:05;28.50;43.60
8910;DHT22;4490;49.072;8.804;2022-08-21T17:26:31;28.40;44.30
8910;DHT22;4490;49.072;8.804;2022-08-21T17:28:58;28.30;45.20